createdAt,value
2022-08-08T00:02:03.387Z,1.53
2022-08-08T00:04:55.632Z,1.42
2022-08-08T00:08:07.146Z,1.55
2022-08-08T00:10:52.880Z,1.30
2022-08-08T00:14:15.544Z,1.52
2022-08-08T00:16:19.533Z,1.70
2022-08-08T00:19:18.611Z,1.85
2022-08-08T00:21:56.040Z,1.60
2022-08-08T00:24:30.045Z,1.73
2022-08-08T00:27:02.636Z,1.80
2022-08-08T00:30:00.634Z,1.50
2022-08-08T00:32:45.798Z,1.88
2022-08-08T00:35:34.618Z,1.50
2022-08-08T00:38:31.201Z,1.35
2022-08-08T00:41:54.762Z,1.90
2022-08-08T00:44:27.806Z,1.67
2022-08-08T00:47:23.189Z,1.90
2022-08-08T00:50:09.282Z,1.65
2022-08-08T00:52:56.486Z,1.60
2022-08-08T00:55:53.129Z,1.45
2022-08-08T00:58:35.984Z,1.67
2022-08-08T01:01:38.722Z,1.70
2022-08-08T01:04:37.651Z,1.60
2022-08-08T01:07:55.531Z,1.40
2022-08-08T01:10:32.220Z,1.60
2022-08-08T01:13:05.044Z,1.90
2022-08-08T01:15:54.159Z,1.50
2022-08-08T01:18:53.593Z,1.30
2022-08-08T01:24:50.813Z,1.63
2022-08-08T01:27:46.203Z,1.67
2022-08-08T01:30:53.592Z,1.80
2022-08-08T01:33:53.945Z,1.92
2022-08-08T01:36:41.003Z,1.45
2022-08-08T01:39:24.209Z,1.55
2022-08-08T01:42:08.158Z,1.45
2022-08-08T01:44:35.013Z,1.50
2022-08-08T01:48:07.136Z,1.65
2022-08-08T01:50:30.239Z,1.42
2022-08-08T01:55:17.986Z,1.48
2022-08-08T01:56:47.726Z,1.48
2022-08-08T02:00:00.771Z,1.63
2022-08-08T02:02:46.200Z,1.40
2022-08-08T02:05:56.528Z,1.77
2022-08-08T02:08:36.298Z,1.67
2022-08-08T02:11:53.019Z,1.42
2022-08-08T02:14:55.010Z,1.77
2022-08-08T02:17:36.485Z,1.60
2022-08-08T02:20:15.871Z,1.70
2022-08-08T02:23:28.920Z,1.50
2022-08-08T02:26:10.202Z,1.80
2022-08-08T02:28:58.937Z,1.70
2022-08-08T02:32:04.790Z,1.55
2022-08-08T02:35:06.421Z,1.70
2022-08-08T02:38:25.507Z,1.60
2022-08-08T02:41:59.097Z,1.75
2022-08-08T02:44:42.873Z,1.60
2022-08-08T02:47:54.802Z,1.75
2022-08-08T02:50:30.835Z,1.90
2022-08-08T02:53:39.722Z,1.70
2022-08-08T02:56:55.737Z,1.88
2022-08-08T03:00:26.944Z,1.80
2022-08-08T03:03:05.971Z,2.00
2022-08-08T03:05:53.508Z,1.75
2022-08-08T03:09:02.967Z,2.05
2022-08-08T03:12:01.933Z,1.70
2022-08-08T03:15:56.227Z,1.80
2022-08-08T03:17:38.149Z,1.67
2022-08-08T03:20:10.308Z,1.73
2022-08-08T03:22:45.282Z,1.70
2022-08-08T03:25:18.564Z,2.10
2022-08-08T03:27:56.557Z,1.95
2022-08-08T03:30:27.218Z,2.35
2022-08-08T03:33:54.700Z,2.08
2022-08-08T03:36:01.140Z,2.00
2022-08-08T03:38:57.648Z,2.17
2022-08-08T03:42:12.744Z,2.08
2022-08-08T03:44:05.650Z,1.98
2022-08-08T03:46:54.274Z,2.15
2022-08-08T03:49:58.406Z,2.10
2022-08-08T03:52:14.032Z,2.10
2022-08-08T03:55:01.538Z,2.08
2022-08-08T03:58:31.400Z,2.00
2022-08-08T04:00:18.899Z,2.22
2022-08-08T04:03:11.210Z,2.22
2022-08-08T04:05:39.930Z,2.00
2022-08-08T04:08:33.362Z,2.40
2022-08-08T04:11:10.958Z,2.22
2022-08-08T04:14:03.043Z,2.67
2022-08-08T04:16:38.580Z,2.25
2022-08-08T04:19:25.297Z,2.30
2022-08-08T04:21:54.323Z,2.55
2022-08-08T04:24:29.550Z,2.67
2022-08-08T04:26:59.581Z,2.35
2022-08-08T04:29:37.411Z,2.05
2022-08-08T04:32:08.230Z,2.30
2022-08-08T04:34:42.936Z,2.20
2022-08-08T04:37:31.508Z,2.30
2022-08-08T04:40:06.278Z,2.40
2022-08-08T04:42:36.803Z,2.25
2022-08-08T04:45:10.023Z,2.50
2022-08-08T04:47:46.236Z,2.25
2022-08-08T04:50:14.390Z,2.30
2022-08-08T04:53:01.147Z,2.40
2022-08-08T04:55:47.857Z,2.53
2022-08-08T04:58:20.133Z,2.03
2022-08-08T05:00:49.962Z,2.25
2022-08-08T05:06:12.920Z,2.65
2022-08-08T05:08:42.586Z,2.53
2022-08-08T05:11:18.662Z,3.03
2022-08-08T05:13:58.462Z,2.90
2022-08-08T05:16:54.651Z,2.33
2022-08-08T05:20:09.526Z,2.40
2022-08-08T05:22:07.603Z,2.90
2022-08-08T05:24:37.322Z,2.90
2022-08-08T05:27:05.309Z,2.63
2022-08-08T05:29:32.064Z,2.65
2022-08-08T05:32:07.455Z,2.85
2022-08-08T05:34:34.643Z,2.80
2022-08-08T05:37:07.381Z,2.72
2022-08-08T05:39:46.650Z,2.70
2022-08-08T05:42:15.044Z,2.80
2022-08-08T05:44:46.598Z,2.78
2022-08-08T05:47:21.429Z,2.67
2022-08-08T05:49:56.344Z,3.25
2022-08-08T05:52:33.820Z,3.00
2022-08-08T05:55:09.801Z,2.92
2022-08-08T05:58:04.366Z,3.00
2022-08-08T06:00:34.200Z,3.47
2022-08-08T06:03:17.396Z,2.92
2022-08-08T06:05:56.685Z,3.28
2022-08-08T06:08:35.158Z,3.38
2022-08-08T06:11:05.417Z,3.70
2022-08-08T06:13:36.198Z,3.33
2022-08-08T06:16:14.195Z,4.03
2022-08-08T06:18:41.520Z,4.55
2022-08-08T06:21:28.572Z,3.85
2022-08-08T06:24:02.226Z,3.80
2022-08-08T06:26:50.670Z,4.05
2022-08-08T06:29:49.308Z,3.73
2022-08-08T06:32:27.619Z,4.00
2022-08-08T06:36:03.965Z,4.38
2022-08-08T06:37:58.281Z,4.03
2022-08-08T06:40:29.775Z,4.55
2022-08-08T06:43:05.809Z,4.30
2022-08-08T06:45:38.978Z,3.63
2022-08-08T06:50:33.725Z,4.65
2022-08-08T06:53:10.035Z,5.03
2022-08-08T06:55:42.131Z,4.13
2022-08-08T06:58:10.140Z,4.23
2022-08-08T07:00:40.972Z,3.65
2022-08-08T07:03:51.500Z,5.10
2022-08-08T07:06:03.805Z,4.55
2022-08-08T07:08:38.827Z,4.38
2022-08-08T07:11:09.089Z,3.53
2022-08-08T07:14:00.340Z,4.47
2022-08-08T07:16:37.713Z,4.60
2022-08-08T07:19:38.154Z,4.65
2022-08-08T07:22:11.966Z,4.10
2022-08-08T07:24:46.574Z,3.50
2022-08-08T07:27:17.053Z,3.78
2022-08-08T07:30:02.655Z,4.60
2022-08-08T07:32:32.447Z,4.03
2022-08-08T07:35:06.394Z,3.67
2022-08-08T07:37:56.428Z,4.55
2022-08-08T07:40:32.390Z,3.83
2022-08-08T07:43:02.297Z,4.03
2022-08-08T07:45:34.940Z,3.97
2022-08-08T07:48:21.618Z,4.30
2022-08-08T07:50:52.166Z,3.65
2022-08-08T07:54:00.738Z,5.18
2022-08-08T07:56:37.026Z,3.63
2022-08-08T07:59:10.420Z,2.95
2022-08-08T08:02:35.199Z,3.95
2022-08-08T08:04:40.071Z,3.90
2022-08-08T08:07:08.823Z,3.70
2022-08-08T08:09:40.175Z,3.47
2022-08-08T08:12:09.977Z,3.65
2022-08-08T08:15:06.972Z,3.72
2022-08-08T08:17:47.722Z,3.70
2022-08-08T08:20:18.485Z,3.55
2022-08-08T08:22:47.386Z,3.33
2022-08-08T08:25:17.019Z,2.78
2022-08-08T08:27:48.463Z,3.20
2022-08-08T08:30:16.850Z,3.10
2022-08-08T08:32:51.145Z,3.03
2022-08-08T08:35:21.685Z,2.90
2022-08-08T08:38:16.206Z,3.63
2022-08-08T08:40:44.466Z,3.03
2022-08-08T08:43:26.782Z,3.00
2022-08-08T08:46:03.547Z,3.20
2022-08-08T08:48:34.823Z,3.30
2022-08-08T08:51:03.292Z,2.92
2022-08-08T08:53:56.502Z,3.40
2022-08-08T08:56:27.690Z,3.30
2022-08-08T08:58:56.764Z,2.63
2022-08-08T09:01:31.073Z,2.72
2022-08-08T09:04:10.084Z,3.28
2022-08-08T09:06:59.340Z,3.15
2022-08-08T09:09:40.160Z,3.30
2022-08-08T09:12:15.313Z,3.05
2022-08-08T09:14:45.130Z,3.50
2022-08-08T09:17:19.170Z,2.50
2022-08-08T09:22:01.008Z,2.38
2022-08-08T09:22:49.005Z,2.35
2022-08-08T09:25:17.817Z,2.60
2022-08-08T09:27:57.627Z,2.42
2022-08-08T09:30:27.961Z,2.20
2022-08-08T09:33:54.048Z,3.13
2022-08-08T09:35:49.219Z,2.60
2022-08-08T09:39:00.389Z,2.40
2022-08-08T09:42:13.960Z,2.30
2022-08-08T09:44:47.959Z,2.90
2022-08-08T09:48:02.733Z,2.70
2022-08-08T09:50:14.314Z,2.97
2022-08-08T09:52:59.222Z,2.60
2022-08-08T09:55:51.725Z,2.60
2022-08-08T09:58:27.648Z,2.45
2022-08-08T10:01:14.904Z,2.30
2022-08-08T10:03:45.960Z,2.53
2022-08-08T10:06:29.204Z,1.70
2022-08-08T10:08:59.982Z,2.55
2022-08-08T10:12:28.221Z,2.22
2022-08-08T10:14:28.124Z,1.77
2022-08-08T10:18:03.502Z,1.60
2022-08-08T10:20:00.959Z,2.20
2022-08-08T10:22:32.174Z,2.47
2022-08-08T10:25:05.533Z,1.92
2022-08-08T10:27:42.017Z,1.80
2022-08-08T10:30:16.575Z,1.75
2022-08-08T10:33:02.725Z,1.80
2022-08-08T10:36:08.923Z,1.65
2022-08-08T10:38:20.725Z,1.17
2022-08-08T10:43:22.212Z,2.60
2022-08-08T10:45:55.557Z,1.88
2022-08-08T10:48:56.125Z,2.03
2022-08-08T10:51:26.436Z,1.73
2022-08-08T10:54:02.278Z,1.92
2022-08-08T10:56:36.167Z,1.70
2022-08-08T10:59:10.363Z,1.20
2022-08-08T11:01:49.235Z,1.60
2022-08-08T11:04:29.920Z,1.58
2022-08-08T11:07:13.871Z,1.75
2022-08-08T11:10:01.668Z,1.60
2022-08-08T11:12:29.329Z,1.40
2022-08-08T11:14:58.118Z,1.52
2022-08-08T11:18:00.747Z,1.20
2022-08-08T11:20:30.451Z,1.60
2022-08-08T11:23:05.300Z,1.58
2022-08-08T11:25:52.781Z,1.85
2022-08-08T11:28:29.432Z,1.35
2022-08-08T11:31:00.272Z,1.60
2022-08-08T11:33:52.742Z,1.50
2022-08-08T11:36:16.245Z,1.60
2022-08-08T11:38:55.201Z,1.58
2022-08-08T11:44:00.799Z,1.50
2022-08-08T11:46:31.660Z,2.15
2022-08-08T11:49:11.351Z,1.65
2022-08-08T11:51:49.551Z,1.70
2022-08-08T11:54:33.243Z,1.73
2022-08-08T11:57:27.286Z,2.17
2022-08-08T12:00:06.100Z,2.15
2022-08-08T12:02:54.299Z,1.83
2022-08-08T12:05:38.767Z,2.15
2022-08-08T12:08:05.697Z,1.77
2022-08-08T12:10:33.957Z,1.90
2022-08-08T12:13:10.364Z,2.22
2022-08-08T12:15:41.717Z,2.00
2022-08-08T12:18:28.669Z,2.20
2022-08-08T12:20:58.810Z,1.85
2022-08-08T12:23:43.419Z,2.00
2022-08-08T12:26:27.387Z,2.10
2022-08-08T12:28:58.283Z,1.83
2022-08-08T12:31:39.316Z,1.80
2022-08-08T12:34:33.180Z,1.60
2022-08-08T12:37:08.158Z,1.85
2022-08-08T12:39:59.746Z,2.05
2022-08-08T12:42:26.649Z,2.05
2022-08-08T12:45:54.145Z,1.83
2022-08-08T12:48:10.275Z,1.80
2022-08-08T12:50:57.288Z,2.53
2022-08-08T12:53:28.313Z,1.63
2022-08-08T12:56:19.757Z,1.50
2022-08-08T12:58:53.903Z,1.50
2022-08-08T13:01:28.824Z,1.92
2022-08-08T13:04:24.464Z,1.80
2022-08-08T13:06:56.962Z,1.98
2022-08-08T13:10:00.675Z,1.60
2022-08-08T13:12:47.133Z,1.90
2022-08-08T13:15:16.864Z,1.50
2022-08-08T13:18:09.518Z,1.88
2022-08-08T13:20:33.467Z,1.60
2022-08-08T13:23:35.927Z,1.98
2022-08-08T13:25:59.570Z,1.98
2022-08-08T13:28:33.576Z,1.80
2022-08-08T13:31:04.732Z,2.03
2022-08-08T13:33:42.012Z,2.20
2022-08-08T13:36:10.969Z,1.70
2022-08-08T13:38:38.545Z,2.15
2022-08-08T13:41:07.336Z,1.88
2022-08-08T13:43:46.567Z,2.35
2022-08-08T13:46:26.726Z,2.20
2022-08-08T13:49:11.904Z,2.00
2022-08-08T13:51:57.032Z,2.00
2022-08-08T13:54:29.459Z,2.05
2022-08-08T13:57:17.276Z,1.90
2022-08-08T13:59:51.858Z,2.10
2022-08-08T14:02:22.855Z,2.15
2022-08-08T14:05:04.791Z,2.40
2022-08-08T14:07:49.869Z,2.40
2022-08-08T14:10:33.424Z,2.28
2022-08-08T14:13:31.001Z,2.08
2022-08-08T14:16:16.562Z,2.22
2022-08-08T14:19:10.846Z,2.22
2022-08-08T14:21:52.191Z,2.38
2022-08-08T14:24:34.044Z,2.15
2022-08-08T14:27:01.767Z,2.20
2022-08-08T14:29:39.423Z,2.40
2022-08-08T14:32:12.524Z,2.22
2022-08-08T14:34:45.543Z,2.10
2022-08-08T14:37:17.247Z,2.30
2022-08-08T14:39:50.178Z,2.20
2022-08-08T14:42:34.526Z,2.20
2022-08-08T14:45:10.020Z,2.55
2022-08-08T14:47:53.206Z,2.30
2022-08-08T14:50:38.699Z,2.10
2022-08-08T14:53:14.203Z,2.42
2022-08-08T14:55:43.892Z,1.92
2022-08-08T14:58:16.494Z,2.15
2022-08-08T15:00:49.731Z,2.00
2022-08-08T15:03:17.323Z,1.92
2022-08-08T15:05:54.453Z,2.35
2022-08-08T15:08:34.453Z,2.70
2022-08-08T15:11:04.522Z,2.20
2022-08-08T15:13:35.202Z,2.20
2022-08-08T15:16:11.716Z,2.00
2022-08-08T15:18:51.275Z,2.20
2022-08-08T15:21:19.492Z,2.40
2022-08-08T15:26:20.280Z,2.20
2022-08-08T15:28:53.994Z,2.33
2022-08-08T15:31:56.198Z,2.60
2022-08-08T15:34:29.431Z,2.30
2022-08-08T15:36:59.206Z,2.42
2022-08-08T15:39:27.560Z,2.75
2022-08-08T15:41:55.427Z,2.97
2022-08-08T15:44:24.793Z,2.03
2022-08-08T15:46:55.368Z,2.22
2022-08-08T15:49:27.647Z,2.30
2022-08-08T15:51:56.415Z,2.40
2022-08-08T15:54:38.556Z,2.40
2022-08-08T15:57:11.173Z,2.55
2022-08-08T16:00:05.137Z,2.50
2022-08-08T16:02:32.416Z,2.80
2022-08-08T16:05:01.524Z,2.67
2022-08-08T16:07:52.078Z,2.70
2022-08-08T16:13:11.734Z,2.42
2022-08-08T16:13:28.379Z,2.10
2022-08-08T16:15:58.832Z,2.30
2022-08-08T16:18:38.340Z,2.53
2022-08-08T16:23:55.850Z,2.10
2022-08-08T16:26:34.424Z,2.30
2022-08-08T16:29:16.176Z,2.50
2022-08-08T16:31:49.119Z,3.05
2022-08-08T16:34:20.539Z,2.28
2022-08-08T16:36:51.940Z,3.03
2022-08-08T16:39:59.772Z,2.70
2022-08-08T16:42:17.775Z,3.55
2022-08-08T16:44:47.518Z,3.28
2022-08-08T16:47:31.638Z,2.50
2022-08-08T16:50:13.740Z,2.42
2022-08-08T16:55:00.977Z,2.33
2022-08-08T16:55:55.854Z,2.80
2022-08-08T16:58:29.294Z,2.08
2022-08-08T17:01:02.098Z,2.33
2022-08-08T17:04:00.590Z,2.45
2022-08-08T17:09:06.816Z,2.38
2022-08-08T17:11:39.401Z,2.45
2022-08-08T17:14:27.269Z,2.35
2022-08-08T17:17:06.621Z,2.00
2022-08-08T17:19:55.807Z,2.38
2022-08-08T17:25:11.978Z,2.20
2022-08-08T17:27:46.205Z,2.00
2022-08-08T17:30:27.192Z,2.45
2022-08-08T17:34:48.551Z,2.45
2022-08-08T17:35:55.138Z,2.40
2022-08-08T17:38:23.169Z,2.35
2022-08-08T17:40:49.955Z,2.47
2022-08-08T17:43:23.500Z,2.33
2022-08-08T17:45:50.681Z,2.40
2022-08-08T17:48:30.627Z,2.50
2022-08-08T17:51:02.487Z,2.63
2022-08-08T17:53:42.571Z,2.53
2022-08-08T17:56:09.640Z,2.65
2022-08-08T17:58:36.379Z,2.38
2022-08-08T18:01:08.161Z,2.55
2022-08-08T18:03:37.638Z,2.58
2022-08-08T18:06:19.898Z,3.08
2022-08-08T18:08:50.734Z,2.30
2022-08-08T18:11:22.434Z,2.53
2022-08-08T18:13:51.433Z,2.90
2022-08-08T18:16:23.315Z,2.58
2022-08-08T18:18:56.192Z,2.67
2022-08-08T18:22:00.365Z,2.58
2022-08-08T18:24:18.889Z,2.15
2022-08-08T18:26:54.526Z,2.78
2022-08-08T18:29:29.774Z,3.20
2022-08-08T18:32:03.256Z,2.30
2022-08-08T18:34:32.894Z,2.80
2022-08-08T18:39:28.884Z,2.80
2022-08-08T18:42:01.155Z,2.63
2022-08-08T18:44:34.718Z,2.60
2022-08-08T18:47:03.161Z,2.72
2022-08-08T18:49:32.276Z,2.65
2022-08-08T18:52:08.907Z,2.60
2022-08-08T18:55:00.935Z,2.55
2022-08-08T19:00:19.692Z,2.53
2022-08-08T19:02:55.304Z,2.63
2022-08-08T19:05:30.715Z,2.60
2022-08-08T19:08:00.885Z,2.80
2022-08-08T19:10:29.620Z,2.80
2022-08-08T19:12:56.939Z,2.75
2022-08-08T19:15:26.183Z,2.60
2022-08-08T19:18:31.067Z,2.53
2022-08-08T19:20:48.118Z,2.45
2022-08-08T19:23:17.433Z,2.50
2022-08-08T19:26:26.917Z,2.55
2022-08-08T19:28:37.730Z,3.10
2022-08-08T19:31:09.202Z,2.08
2022-08-08T19:33:52.011Z,2.55
2022-08-08T19:36:25.115Z,2.60
2022-08-08T19:38:57.364Z,2.45
2022-08-08T19:41:34.647Z,2.40
2022-08-08T19:44:12.530Z,2.40
2022-08-08T19:46:40.178Z,2.60
2022-08-08T19:49:07.210Z,2.38
2022-08-08T19:51:41.394Z,2.70
2022-08-08T19:54:11.270Z,2.58
2022-08-08T19:56:40.892Z,2.40
2022-08-08T19:59:12.802Z,2.90
2022-08-08T20:01:50.435Z,2.53
2022-08-08T20:04:30.428Z,3.13
2022-08-08T20:06:57.964Z,2.83
2022-08-08T20:09:32.458Z,2.25
2022-08-08T20:12:08.655Z,2.25
2022-08-08T20:14:41.899Z,2.53
2022-08-08T20:17:09.191Z,2.53
2022-08-08T20:22:13.087Z,2.40
2022-08-08T20:24:50.037Z,2.58
2022-08-08T20:27:20.267Z,2.30
2022-08-08T20:29:55.261Z,2.80
2022-08-08T20:32:26.797Z,2.30
2022-08-08T20:35:01.442Z,2.72
2022-08-08T20:37:47.006Z,2.85
2022-08-08T20:40:33.528Z,2.90
2022-08-08T20:43:16.424Z,2.42
2022-08-08T20:45:55.218Z,2.80
2022-08-08T20:48:29.993Z,2.80
2022-08-08T20:51:01.466Z,2.58
2022-08-08T20:53:59.141Z,3.00
2022-08-08T20:59:05.954Z,2.80
2022-08-08T21:02:06.602Z,2.40
2022-08-08T21:04:20.969Z,2.60
2022-08-08T21:06:54.009Z,2.40
2022-08-08T21:09:21.517Z,2.50
2022-08-08T21:12:02.878Z,3.08
2022-08-08T21:14:34.451Z,2.63
2022-08-08T21:17:07.545Z,2.70
2022-08-08T21:19:45.406Z,2.60
2022-08-08T21:22:13.927Z,2.43
2022-08-08T21:24:41.828Z,2.70
2022-08-08T21:27:15.231Z,2.90
2022-08-08T21:30:02.887Z,2.78
2022-08-08T21:32:36.607Z,2.45
2022-08-08T21:40:31.428Z,2.70
2022-08-08T21:42:58.936Z,2.53
2022-08-08T21:45:44.621Z,3.00
2022-08-08T21:48:21.906Z,2.80
2022-08-08T21:50:50.306Z,2.67
2022-08-08T21:54:36.380Z,2.50
2022-08-08T21:56:25.897Z,2.70
2022-08-08T21:58:55.204Z,2.60
2022-08-08T22:01:39.062Z,2.22
2022-08-08T22:04:10.500Z,2.70
2022-08-08T22:06:39.600Z,2.60
2022-08-08T22:09:09.463Z,2.33
2022-08-08T22:11:59.172Z,2.42
2022-08-08T22:14:28.994Z,2.50
2022-08-08T22:16:56.468Z,2.63
2022-08-08T22:19:29.828Z,2.40
2022-08-08T22:21:57.348Z,2.47
2022-08-08T22:24:28.695Z,2.63
2022-08-08T22:27:02.606Z,2.40
2022-08-08T22:30:01.944Z,2.60
2022-08-08T22:32:18.918Z,2.63
2022-08-08T22:34:50.851Z,2.47
2022-08-08T22:37:48.820Z,2.70
2022-08-08T22:40:11.727Z,2.60
2022-08-08T22:42:40.179Z,2.80
2022-08-08T22:45:12.920Z,2.77
2022-08-08T22:47:46.628Z,2.65
2022-08-08T22:50:25.883Z,2.58
2022-08-08T22:54:31.158Z,2.42
2022-08-08T22:55:59.787Z,3.00
2022-08-08T22:58:32.993Z,2.55
2022-08-08T23:02:01.053Z,3.00
2022-08-08T23:03:54.683Z,2.67
2022-08-08T23:06:22.746Z,2.75
2022-08-08T23:08:55.061Z,2.42
2022-08-08T23:11:31.115Z,2.70
2022-08-08T23:14:15.056Z,2.78
2022-08-08T23:16:45.662Z,2.35
2022-08-08T23:19:20.323Z,2.75
2022-08-08T23:21:48.739Z,2.70
2022-08-08T23:24:22.712Z,2.97
2022-08-08T23:26:53.470Z,2.80
2022-08-08T23:29:27.188Z,2.50
2022-08-08T23:31:58.515Z,2.40
2022-08-08T23:34:25.652Z,2.78
2022-08-08T23:36:59.886Z,2.70
2022-08-08T23:39:32.134Z,2.72
2022-08-08T23:42:08.913Z,2.72
2022-08-08T23:44:39.798Z,2.80
2022-08-08T23:49:07.965Z,2.80
2022-08-08T23:50:02.852Z,2.72
2022-08-08T23:52:31.292Z,2.70
2022-08-08T23:55:07.586Z,2.85
2022-08-08T23:57:51.947Z,2.35
